Time;durP1;ratioP1;P1;durP2;ratioP2;P2;SDS_P1;SDS_P2;PMS_P1;PMS_P2;Temp;Humidity;BMP_temperature;BMP_pressure;BME280_temperature;BME280_humidity;BME280_pressure;Samples;Min_cycle;Max_cycle;Signal;HPM_P1;HPM_P2
2022/08/28 00:00:04;;;;;;;6.90;1.30;;;;;;;18.07;62.53;101508.94;5047526;28;20036;-86
2022/08/28 00:02:32;;;;;;;4.47;1.30;;;;;;;18.07;62.70;101508.94;5047483;28;20064;-85
2022/08/28 00:04:57;;;;;;;7.07;1.70;;;;;;;18.11;62.50;101516.44;5043949;28;20062;-85
2022/08/28 00:07:24;;;;;;;9.32;1.55;;;;;;;18.02;62.55;101523.59;5062699;28;20034;-85
2022/08/28 00:09:50;;;;;;;7.55;1.20;;;;;;;17.99;62.71;101514.31;5045815;28;20036;-85
2022/08/28 00:12:16;;;;;;;6.22;1.30;;;;;;;17.94;63.31;101513.25;5034870;28;20048;-85
2022/08/28 00:14:42;;;;;;;10.02;2.35;;;;;;;17.95;63.38;101520.09;5027567;28;20033;-86
2022/08/28 00:17:07;;;;;;;6.63;2.38;;;;;;;17.99;63.31;101522.19;5042918;28;20461;-84
2022/08/28 00:19:33;;;;;;;10.30;2.85;;;;;;;18.01;62.85;101525.44;5034567;28;20033;-85
2022/08/28 00:22:00;;;;;;;9.18;2.03;;;;;;;18.01;63.19;101529.88;5042951;28;20044;-84
2022/08/28 00:24:25;;;;;;;8.20;1.60;;;;;;;18.07;63.14;101539.63;5047133;28;20418;-84
2022/08/28 00:29:35;;;;;;;9.77;2.50;;;;;;;17.94;63.07;101544.72;5044951;28;20508;-85
2022/08/28 00:32:01;;;;;;;5.95;1.63;;;;;;;17.94;63.13;101540.28;5030797;28;20029;-85
2022/08/28 00:34:27;;;;;;;6.10;1.67;;;;;;;17.96;63.17;101551.41;5041336;28;20059;-85
2022/08/28 00:36:53;;;;;;;8.18;1.60;;;;;;;17.94;63.30;101550.78;5026037;28;20117;-86
2022/08/28 00:39:18;;;;;;;8.23;2.15;;;;;;;17.84;63.47;101547.63;5041637;28;20128;-85
2022/08/28 00:41:44;;;;;;;10.82;2.42;;;;;;;17.81;63.67;101545.38;5044475;28;20057;-85
2022/08/28 00:44:22;;;;;;;6.38;1.70;;;;;;;17.78;63.90;101536.06;5047365;28;20044;-85
2022/08/28 00:46:50;;;;;;;9.82;1.92;;;;;;;17.74;64.07;101539.25;5046009;28;20041;-86
2022/08/28 00:49:19;;;;;;;9.20;2.22;;;;;;;17.81;63.61;101540.13;5035819;28;20094;-86
2022/08/28 00:52:06;;;;;;;10.10;2.42;;;;;;;17.66;64.04;101535.72;5026810;28;20044;-84
2022/08/28 00:55:04;;;;;;;10.70;2.42;;;;;;;17.56;64.67;101537.84;5027544;28;20072;-86
2022/08/28 00:57:34;;;;;;;7.72;2.47;;;;;;;17.66;64.57;101542.78;5045024;28;20065;-85
2022/08/28 01:00:01;;;;;;;10.15;2.35;;;;;;;17.61;64.29;101539.91;5046588;28;20409;-85
2022/08/28 01:02:26;;;;;;;14.10;2.63;;;;;;;17.56;64.41;101535.22;5043248;28;20534;-85
2022/08/28 01:04:53;;;;;;;11.38;3.33;;;;;;;17.44;64.58;101534.88;5028903;28;20128;-85
2022/08/28 01:07:22;;;;;;;10.52;2.30;;;;;;;17.44;64.49;101537.50;5045060;28;20044;-85
2022/08/28 01:09:51;;;;;;;11.32;2.70;;;;;;;17.46;64.60;101538.13;5040820;28;20038;-85
2022/08/28 01:12:20;;;;;;;8.77;2.38;;;;;;;17.46;64.65;101542.53;5045067;28;20044;-85
2022/08/28 01:14:49;;;;;;;12.10;3.63;;;;;;;17.41;64.45;101539.69;5029585;28;20064;-85
2022/08/28 01:17:16;;;;;;;8.55;2.30;;;;;;;17.37;64.72;101543.66;5029117;28;20036;-85
2022/08/28 01:19:54;;;;;;;11.95;2.65;;;;;;;17.38;64.49;101540.84;5029506;28;20052;-85
2022/08/28 01:22:36;;;;;;;13.23;3.00;;;;;;;17.34;64.71;101547.44;5045994;28;20033;-85
2022/08/28 01:25:06;;;;;;;14.13;4.15;;;;;;;17.35;64.56;101535.97;5046374;28;20115;-85
2022/08/28 01:27:32;;;;;;;16.88;3.33;;;;;;;17.30;64.83;101541.75;5037360;28;20091;-85
2022/08/28 01:29:57;;;;;;;9.40;2.85;;;;;;;17.36;64.50;101537.59;5029005;28;20033;-85
2022/08/28 01:32:31;;;;;;;8.95;2.97;;;;;;;17.28;64.84;101540.31;5046135;28;20042;-85
2022/08/28 01:34:57;;;;;;;16.40;3.38;;;;;;;17.27;64.80;101538.69;5043061;28;20037;-86
2022/08/28 01:37:23;;;;;;;7.63;3.20;;;;;;;17.28;64.84;101541.13;5043826;28;20087;-82
2022/08/28 01:39:49;;;;;;;15.27;3.55;;;;;;;17.26;64.82;101545.75;5038801;28;20068;-82
2022/08/28 01:42:15;;;;;;;14.38;4.65;;;;;;;17.18;64.99;101545.00;5029362;28;20050;-86
2022/08/28 01:44:40;;;;;;;14.55;3.60;;;;;;;17.13;65.57;101550.81;5029195;28;20063;-85
2022/08/28 01:47:05;;;;;;;13.98;3.22;;;;;;;17.01;65.88;101550.47;5041418;28;20049;-85
2022/08/28 01:49:31;;;;;;;13.13;3.05;;;;;;;17.00;66.04;101550.63;5028041;28;20047;-84
2022/08/28 01:51:57;;;;;;;15.25;3.70;;;;;;;17.05;66.10;101548.28;5029242;28;20070;-85
2022/08/28 01:54:24;;;;;;;16.92;4.13;;;;;;;17.06;66.02;101558.56;5027145;28;20064;-84
2022/08/28 01:56:50;;;;;;;11.57;3.25;;;;;;;17.01;66.07;101558.31;5025817;28;20026;-85
2022/08/28 01:59:16;;;;;;;15.65;4.40;;;;;;;16.99;66.03;101551.59;5042856;28;20083;-84
2022/08/28 02:01:42;;;;;;;13.15;3.65;;;;;;;16.97;66.19;101554.44;5042805;28;20036;-84
2022/08/28 02:04:08;;;;;;;6.85;2.95;;;;;;;16.97;66.36;101562.28;5043095;28;20083;-85
2022/08/28 02:06:34;;;;;;;9.95;3.47;;;;;;;17.01;66.33;101567.97;5024890;28;20030;-86
2022/08/28 02:08:59;;;;;;;10.68;3.25;;;;;;;17.03;66.34;101566.81;5043930;28;20040;-85
2022/08/28 02:11:28;;;;;;;14.43;3.33;;;;;;;16.99;66.21;101569.94;5043969;28;20055;-85
2022/08/28 02:13:53;;;;;;;12.00;3.63;;;;;;;16.97;66.08;101574.56;5024009;28;20044;-86
2022/08/28 02:16:19;;;;;;;8.95;3.25;;;;;;;16.96;66.66;101567.69;5024725;28;20780;-85
2022/08/28 02:18:48;;;;;;;14.40;3.50;;;;;;;16.99;65.81;101576.03;5045191;28;20080;-85
2022/08/28 02:21:13;;;;;;;14.45;3.92;;;;;;;16.92;66.45;101578.53;5042418;28;20043;-85
2022/08/28 02:23:41;;;;;;;14.07;4.25;;;;;;;16.99;66.67;101588.28;5028127;28;20032;-85
2022/08/28 02:26:08;;;;;;;12.70;4.57;;;;;;;16.90;66.63;101591.00;5033840;28;20032;-85
2022/08/28 02:28:33;;;;;;;14.00;3.70;;;;;;;16.88;66.85;101589.56;5029580;28;20037;-84
2022/08/28 02:30:59;;;;;;;12.35;3.50;;;;;;;16.94;66.95;101591.44;5024479;28;20040;-85
2022/08/28 02:33:24;;;;;;;9.60;3.05;;;;;;;16.96;67.29;101597.31;5044712;28;20466;-86
2022/08/28 02:35:50;;;;;;;12.52;3.55;;;;;;;16.94;66.95;101588.84;5028609;28;20032;-84
2022/08/28 02:38:16;;;;;;;14.93;3.95;;;;;;;16.88;67.05;101592.97;5028005;28;20103;-84
2022/08/28 02:40:42;;;;;;;14.80;4.28;;;;;;;16.86;67.16;101592.34;5025671;28;20029;-84
2022/08/28 02:43:08;;;;;;;20.88;3.97;;;;;;;16.87;67.25;101596.56;5043593;28;20069;-85
2022/08/28 02:45:33;;;;;;;11.25;3.47;;;;;;;16.85;67.52;101597.75;5041989;28;20034;-84
2022/08/28 02:48:00;;;;;;;13.13;3.72;;;;;;;16.85;67.37;101595.94;5048039;28;20045;-85
2022/08/28 02:50:28;;;;;;;15.70;4.07;;;;;;;16.83;67.83;101589.28;5023323;28;20085;-84
2022/08/28 02:52:54;;;;;;;21.15;4.82;;;;;;;16.75;67.97;101600.59;5025310;28;20056;-85
2022/08/28 02:55:21;;;;;;;15.88;4.05;;;;;;;16.71;68.38;101597.53;5026259;28;20036;-86
2022/08/28 02:57:47;;;;;;;17.00;3.42;;;;;;;16.69;68.27;101603.94;5038360;28;20474;-85
2022/08/28 03:00:18;;;;;;;13.90;3.97;;;;;;;16.74;68.13;101599.78;5026983;28;20572;-85
2022/08/28 03:02:45;;;;;;;22.08;5.20;;;;;;;16.81;67.79;101599.88;5044731;28;20478;-86
2022/08/28 03:05:12;;;;;;;12.57;3.58;;;;;;;16.71;68.05;101596.72;5027228;28;20041;-85
2022/08/28 03:07:38;;;;;;;11.98;3.35;;;;;;;16.70;68.25;101595.88;5042214;28;20401;-86
2022/08/28 03:10:06;;;;;;;11.52;4.13;;;;;;;16.59;68.44;101596.31;5028792;28;20040;-85
2022/08/28 03:12:32;;;;;;;14.45;4.00;;;;;;;16.65;68.58;101600.03;5030671;28;20033;-85
2022/08/28 03:14:57;;;;;;;15.10;4.00;;;;;;;16.66;68.91;101609.50;5045294;28;20257;-84
2022/08/28 03:17:23;;;;;;;15.50;4.18;;;;;;;16.58;68.92;101615.63;5026202;28;20029;-85
2022/08/28 03:19:49;;;;;;;11.07;3.53;;;;;;;16.58;69.04;101617.44;5044293;28;20040;-85
2022/08/28 03:22:16;;;;;;;14.48;3.72;;;;;;;16.53;69.26;101613.53;5027158;28;20037;-85
2022/08/28 03:24:41;;;;;;;17.17;4.10;;;;;;;16.45;69.56;101613.59;5031213;28;21090;-84
2022/08/28 03:27:07;;;;;;;9.07;3.70;;;;;;;16.42;69.56;101620.97;5028234;28;20040;-84
2022/08/28 03:29:34;;;;;;;15.00;3.88;;;;;;;16.43;69.83;101620.00;5040598;28;20505;-85
2022/08/28 03:31:59;;;;;;;13.00;3.90;;;;;;;16.34;69.86;101617.44;5043704;28;20078;-85
2022/08/28 03:34:25;;;;;;;14.30;4.40;;;;;;;16.31;69.94;101623.03;5044145;28;20465;-86
2022/08/28 03:36:51;;;;;;;13.82;3.92;;;;;;;16.30;69.93;101618.78;5023411;28;20036;-85
2022/08/28 03:39:16;;;;;;;11.27;3.45;;;;;;;16.21;70.09;101614.56;5023817;28;20327;-85
2022/08/28 03:41:41;;;;;;;13.40;3.80;;;;;;;16.17;70.48;101625.56;5042086;28;20029;-85
2022/08/28 03:44:08;;;;;;;13.07;3.85;;;;;;;16.13;70.85;101620.66;5045022;28;20091;-86
2022/08/28 03:46:34;;;;;;;12.32;3.30;;;;;;;16.06;70.83;101624.16;5040484;28;20017;-85
2022/08/28 03:49:02;;;;;;;15.25;4.00;;;;;;;15.96;71.54;101625.19;5041674;28;20123;-83
2022/08/28 03:51:30;;;;;;;17.73;4.38;;;;;;;16.03;71.25;101629.72;5022207;28;20049;-85
2022/08/28 03:53:57;;;;;;;9.10;3.30;;;;;;;16.06;71.21;101635.44;5028702;28;20055;-86
2022/08/28 03:56:25;;;;;;;11.38;4.10;;;;;;;16.08;71.19;101641.28;5029581;28;20033;-85
2022/08/28 03:58:54;;;;;;;14.65;4.28;;;;;;;16.07;71.44;101636.25;5025522;28;20033;-85
2022/08/28 04:01:20;;;;;;;10.75;3.58;;;;;;;16.04;71.60;101642.63;5038997;28;20049;-86
2022/08/28 04:03:46;;;;;;;11.95;3.28;;;;;;;16.07;71.77;101636.25;5038013;28;20474;-85
2022/08/28 04:06:15;;;;;;;13.45;3.45;;;;;;;16.09;71.79;101642.94;5039568;28;20465;-86
2022/08/28 04:08:41;;;;;;;10.75;3.30;;;;;;;16.11;71.95;101645.38;5040679;28;20174;-85
2022/08/28 04:11:07;;;;;;;8.70;3.45;;;;;;;16.11;71.84;101648.00;5043882;28;20026;-85
2022/08/28 04:13:32;;;;;;;11.93;3.72;;;;;;;16.10;71.86;101644.56;5038308;28;20026;-85
2022/08/28 04:16:09;;;;;;;11.38;3.72;;;;;;;16.12;72.18;101642.59;5040779;28;21796;-85
2022/08/28 04:18:36;;;;;;;16.13;3.88;;;;;;;16.06;71.92;101648.50;5024741;28;20025;-87
2022/08/28 04:21:08;;;;;;;14.43;3.50;;;;;;;16.02;72.21;101647.22;5041860;28;20029;-85
2022/08/28 04:23:46;;;;;;;12.13;4.47;;;;;;;16.05;72.39;101648.66;5030868;28;20037;-85
2022/08/28 04:26:18;;;;;;;12.43;3.40;;;;;;;15.95;72.58;101647.09;5032103;28;20083;-83
2022/08/28 04:28:44;;;;;;;11.77;4.10;;;;;;;15.96;72.71;101659.19;5062336;28;20037;-85
2022/08/28 04:31:10;;;;;;;13.60;3.65;;;;;;;15.95;72.80;101654.94;5029579;28;20037;-85
2022/08/28 04:33:37;;;;;;;9.43;3.45;;;;;;;15.96;73.07;101658.38;5028600;28;20462;-85
2022/08/28 04:36:08;;;;;;;17.23;4.78;;;;;;;15.99;72.98;101665.06;5041702;28;20171;-85
2022/08/28 04:38:34;;;;;;;14.15;3.85;;;;;;;15.89;72.74;101663.47;5043198;28;20047;-85
2022/08/28 04:41:06;;;;;;;14.57;4.38;;;;;;;15.82;73.14;101656.47;5031453;28;20028;-85
2022/08/28 04:43:32;;;;;;;12.07;3.63;;;;;;;15.81;73.21;101668.72;5027566;28;20033;-86
2022/08/28 04:45:57;;;;;;;13.48;3.50;;;;;;;15.82;73.43;101666.91;5029270;28;20037;-85
2022/08/28 04:48:23;;;;;;;13.98;4.22;;;;;;;15.84;73.69;101671.03;5043878;28;20055;-85
2022/08/28 04:50:49;;;;;;;12.57;3.55;;;;;;;15.83;73.97;101668.56;5043254;28;20042;-85
2022/08/28 04:53:17;;;;;;;16.85;4.00;;;;;;;15.87;73.65;101667.25;5043135;28;20033;-85
2022/08/28 04:55:49;;;;;;;13.13;4.07;;;;;;;15.86;73.68;101666.44;5041712;28;20071;-85
2022/08/28 04:58:15;;;;;;;9.07;3.50;;;;;;;15.84;73.97;101667.56;5045849;28;20037;-85
2022/08/28 05:00:43;;;;;;;13.85;4.38;;;;;;;15.85;74.14;101669.22;5043105;28;20037;-84
2022/08/28 05:03:10;;;;;;;17.00;3.83;;;;;;;15.84;74.23;101673.63;5029248;28;20041;-86
2022/08/28 05:06:02;;;;;;;12.88;3.20;;;;;;;15.75;74.32;101672.84;5029570;28;20036;-84
2022/08/28 05:08:28;;;;;;;13.88;3.58;;;;;;;15.79;74.34;101677.75;5040423;28;20041;-85
2022/08/28 05:10:54;;;;;;;11.80;3.10;;;;;;;15.81;74.40;101673.97;5047436;28;20033;-85
2022/08/28 05:13:20;;;;;;;11.68;3.97;;;;;;;15.84;74.43;101681.47;5043837;28;20060;-85
2022/08/28 05:15:49;;;;;;;15.45;4.32;;;;;;;15.88;74.28;101687.16;5030946;28;20057;-85
2022/08/28 05:18:16;;;;;;;13.98;4.57;;;;;;;15.92;73.91;101685.88;5026392;28;20453;-85
2022/08/28 05:20:44;;;;;;;11.88;3.83;;;;;;;15.87;74.18;101678.50;5045765;28;20039;-85
2022/08/28 05:23:17;;;;;;;16.45;3.92;;;;;;;15.85;74.39;101682.28;5029065;28;20032;-87
2022/08/28 05:25:45;;;;;;;15.23;4.32;;;;;;;15.90;74.39;101695.69;5047065;28;20567;-84
2022/08/28 05:28:11;;;;;;;15.02;3.38;;;;;;;15.83;74.44;101690.28;5031048;28;20119;-83
2022/08/28 05:30:38;;;;;;;12.75;3.08;;;;;;;15.83;74.06;101692.09;5045896;28;20071;-83
2022/08/28 05:33:05;;;;;;;13.80;3.75;;;;;;;15.77;74.22;101690.97;5028472;28;20041;-85
2022/08/28 05:35:37;;;;;;;12.32;3.38;;;;;;;15.72;74.36;101695.84;5025855;28;20120;-85
2022/08/28 05:38:03;;;;;;;10.88;2.85;;;;;;;15.72;74.50;101701.88;5043057;28;20044;-83
2022/08/28 05:40:29;;;;;;;8.52;3.90;;;;;;;15.68;74.86;101700.59;5044055;28;20043;-85
2022/08/28 05:42:55;;;;;;;15.73;3.33;;;;;;;15.70;74.44;101703.06;5042784;28;20033;-85
2022/08/28 05:45:21;;;;;;;12.90;3.33;;;;;;;15.77;74.35;101698.81;5040062;28;20028;-84
2022/08/28 05:47:47;;;;;;;10.25;2.83;;;;;;;15.76;74.37;101702.41;5024372;28;20120;-86
2022/08/28 05:50:13;;;;;;;18.48;4.07;;;;;;;15.75;74.41;101706.84;5041240;28;20044;-85
2022/08/28 05:52:41;;;;;;;10.57;3.50;;;;;;;15.80;74.46;101708.94;5027155;28;20029;-85
2022/08/28 05:55:08;;;;;;;12.50;3.38;;;;;;;15.81;74.05;101704.53;5057764;28;20488;-85
2022/08/28 05:57:34;;;;;;;14.30;3.72;;;;;;;15.83;73.95;101711.22;5029627;28;20042;-84
2022/08/28 06:00:01;;;;;;;15.88;3.30;;;;;;;15.83;73.95;101715.63;5040850;28;20029;-85
2022/08/28 06:02:26;;;;;;;17.50;3.45;;;;;;;15.82;74.21;101716.59;5039270;28;20063;-85
2022/08/28 06:04:53;;;;;;;11.38;3.67;;;;;;;15.89;74.00;101718.38;5044043;28;20071;-86
2022/08/28 06:07:19;;;;;;;14.25;3.47;;;;;;;15.87;73.91;101720.34;5026858;28;20039;-86
2022/08/28 06:09:44;;;;;;;14.35;3.72;;;;;;;15.83;74.07;101729.53;5041273;28;20486;-86
2022/08/28 06:12:10;;;;;;;14.80;4.10;;;;;;;15.77;74.62;101719.75;5027307;28;20037;-85
2022/08/28 06:14:36;;;;;;;10.60;3.53;;;;;;;15.75;74.55;101725.13;5041636;28;20032;-85
2022/08/28 06:17:02;;;;;;;17.00;4.25;;;;;;;15.78;75.03;101723.97;5045421;28;20283;-86
2022/08/28 06:19:29;;;;;;;13.70;3.75;;;;;;;15.80;74.77;101726.41;5040674;28;20102;-85
2022/08/28 06:22:00;;;;;;;14.05;4.38;;;;;;;15.88;74.14;101716.75;5027250;28;20033;-84
2022/08/28 06:24:27;;;;;;;9.43;3.40;;;;;;;15.93;73.98;101721.47;5040638;28;20660;-85
2022/08/28 06:26:53;;;;;;;11.93;3.65;;;;;;;15.96;74.04;101721.16;5040833;28;20081;-85
2022/08/28 06:29:19;;;;;;;11.90;2.75;;;;;;;15.94;74.08;101725.72;5028081;28;20056;-84
2022/08/28 06:31:45;;;;;;;12.73;2.90;;;;;;;15.91;74.18;101731.28;5027273;28;20036;-86
2022/08/28 06:34:11;;;;;;;10.85;3.08;;;;;;;15.92;74.10;101730.31;5041627;28;20045;-84
2022/08/28 06:36:40;;;;;;;12.73;3.20;;;;;;;15.94;73.98;101737.00;5025783;28;20364;-84
2022/08/28 06:39:07;;;;;;;11.80;4.05;;;;;;;16.10;74.29;101735.31;5056985;28;20033;-86
2022/08/28 06:41:34;;;;;;;11.90;3.33;;;;;;;16.00;73.79;101729.47;5022442;28;20029;-85
2022/08/28 06:44:01;;;;;;;18.83;4.10;;;;;;;15.91;74.11;101737.31;5056549;28;20048;-85
2022/08/28 06:46:29;;;;;;;10.10;3.65;;;;;;;15.93;74.39;101737.97;5020398;28;20025;-85
2022/08/28 06:48:54;;;;;;;16.00;3.60;;;;;;;15.99;74.30;101740.91;5026951;28;20041;-85
2022/08/28 06:51:20;;;;;;;10.88;3.40;;;;;;;16.07;74.24;101741.72;5030131;28;20037;-83
2022/08/28 06:53:45;;;;;;;16.85;4.90;;;;;;;16.10;74.16;101743.16;5042205;28;20028;-86
2022/08/28 06:56:16;;;;;;;10.60;3.78;;;;;;;16.11;74.37;101743.00;5055690;28;20051;-85
2022/08/28 06:58:43;;;;;;;10.85;3.50;;;;;;;16.19;74.24;101742.13;5045364;28;20670;-85
2022/08/28 07:01:13;;;;;;;10.23;4.07;;;;;;;16.25;73.33;101744.06;5030669;28;20033;-85
2022/08/28 07:03:39;;;;;;;11.40;3.58;;;;;;;16.39;73.28;101744.34;5030313;28;22370;-85
2022/08/28 07:06:13;;;;;;;15.45;4.05;;;;;;;17.30;70.56;101738.31;5047652;28;20399;-84
2022/08/28 07:08:40;;;;;;;13.25;4.35;;;;;;;18.55;66.85;101742.00;5019058;28;20032;-85
2022/08/28 07:11:30;;;;;;;12.30;4.07;;;;;;;18.99;63.64;101748.94;5043907;28;20084;-84
2022/08/28 07:13:57;;;;;;;15.23;3.75;;;;;;;18.89;63.43;101740.53;5027850;28;20627;-84
2022/08/28 07:16:26;;;;;;;12.73;3.40;;;;;;;19.01;62.93;101746.13;5031067;28;20060;-84
2022/08/28 07:18:51;;;;;;;17.45;4.00;;;;;;;19.27;62.80;101742.91;5043725;28;20116;-84
2022/08/28 07:21:19;;;;;;;10.98;3.80;;;;;;;19.06;62.74;101747.19;5024977;28;20049;-83
2022/08/28 07:23:45;;;;;;;13.80;3.92;;;;;;;18.93;63.16;101744.44;5038852;28;20489;-84
2022/08/28 07:26:15;;;;;;;10.20;2.80;;;;;;;18.86;63.61;101740.94;5030393;28;20045;-84
2022/08/28 07:28:41;;;;;;;14.95;4.05;;;;;;;18.88;62.98;101744.19;5029246;28;20075;-85
2022/08/28 07:31:12;;;;;;;10.02;2.95;;;;;;;18.39;64.29;101743.06;5020806;28;20500;-85
2022/08/28 07:33:39;;;;;;;15.73;4.35;;;;;;;18.27;65.26;101752.38;5042114;28;20045;-84
2022/08/28 07:36:11;;;;;;;9.15;2.60;;;;;;;17.96;66.04;101756.06;5043107;28;20078;-85
2022/08/28 07:38:36;;;;;;;22.55;3.78;;;;;;;17.74;66.46;101759.53;5061412;28;20032;-84
2022/08/28 07:41:10;;;;;;;19.65;6.65;;;;;;;17.61;66.94;101742.63;5057901;28;20029;-84
2022/08/28 07:46:20;;;;;;;11.88;2.90;;;;;;;17.67;66.18;101762.91;5043059;28;20064;-82
2022/08/28 07:48:46;;;;;;;11.30;3.10;;;;;;;17.93;65.19;101755.59;5044330;28;20473;-84
2022/08/28 07:51:12;;;;;;;11.35;2.35;;;;;;;17.83;65.02;101763.72;5041182;28;20086;-85
2022/08/28 07:53:37;;;;;;;12.60;2.72;;;;;;;17.90;64.22;101764.66;5047229;28;20028;-85
2022/08/28 07:56:04;;;;;;;11.90;2.55;;;;;;;18.92;60.58;101757.78;5031420;28;20040;-84
2022/08/28 07:58:30;;;;;;;13.05;3.22;;;;;;;19.14;59.20;101767.28;5049283;28;20466;-83
2022/08/28 08:00:57;;;;;;;11.90;2.80;;;;;;;18.67;60.39;101769.41;5031510;28;20033;-83
2022/08/28 08:03:24;;;;;;;11.27;2.58;;;;;;;18.40;60.98;101762.25;5042566;28;20040;-84
2022/08/28 08:05:54;;;;;;;14.77;4.60;;;;;;;18.45;61.65;101762.50;5044958;28;20045;-84
2022/08/28 08:08:21;;;;;;;17.00;3.53;;;;;;;19.05;59.32;101763.94;5029697;28;21076;-81
2022/08/28 08:11:10;;;;;;;11.38;2.78;;;;;;;19.67;58.36;101764.22;5034077;28;20029;-84
2022/08/28 08:13:47;;;;;;;10.90;2.47;;;;;;;20.73;54.85;101757.81;5061219;28;20037;-84
2022/08/28 08:16:21;;;;;;;8.88;2.67;;;;;;;21.48;52.61;101752.38;5055258;28;20447;-86
2022/08/28 08:18:48;;;;;;;14.57;3.33;;;;;;;21.87;50.75;101756.75;5042064;28;20029;-85
2022/08/28 08:21:16;;;;;;;15.05;3.22;;;;;;;21.90;51.16;101752.88;5046553;28;20046;-83
2022/08/28 08:23:42;;;;;;;8.90;2.70;;;;;;;22.43;49.87;101747.38;5028030;28;20029;-84
2022/08/28 08:26:11;;;;;;;11.02;2.45;;;;;;;22.46;49.57;101762.81;5025207;28;20033;-86
2022/08/28 08:28:37;;;;;;;14.50;3.33;;;;;;;22.67;48.78;101763.50;5029984;28;20159;-85
2022/08/28 08:31:07;;;;;;;24.02;2.80;;;;;;;23.08;47.96;101762.22;5052745;28;20130;-88
2022/08/28 08:33:33;;;;;;;8.80;2.60;;;;;;;22.73;47.71;101755.53;5047479;28;20437;-85
2022/08/28 08:35:59;;;;;;;14.50;2.88;;;;;;;22.37;47.60;101764.06;5030146;28;20604;-87
2022/08/28 08:38:27;;;;;;;8.70;3.00;;;;;;;22.84;47.62;101763.78;5042454;28;20029;-85
2022/08/28 08:40:53;;;;;;;5.95;2.28;;;;;;;22.66;47.41;101767.97;5045372;28;20037;-86
2022/08/28 08:43:20;;;;;;;13.40;2.97;;;;;;;23.16;46.96;101763.78;5041449;28;20052;-85
2022/08/28 08:45:47;;;;;;;11.15;2.20;;;;;;;23.25;46.53;101760.63;5047040;28;20029;-86
2022/08/28 08:48:28;;;;;;;14.35;3.80;;;;;;;23.61;45.67;101760.91;5041453;28;20025;-85
2022/08/28 08:51:02;;;;;;;11.02;2.47;;;;;;;23.61;45.40;101761.72;5043234;28;20025;-87
2022/08/28 08:53:49;;;;;;;16.08;3.10;;;;;;;22.92;45.70;101767.00;5034852;28;20051;-85
2022/08/28 08:56:17;;;;;;;15.38;3.47;;;;;;;22.70;46.90;101761.25;5044014;28;20033;-86
2022/08/28 08:58:47;;;;;;;10.13;3.03;;;;;;;22.78;47.01;101767.31;5049520;28;20060;-85
2022/08/28 09:01:22;;;;;;;8.55;2.30;;;;;;;23.19;45.80;101765.97;5061219;28;20029;-86
2022/08/28 09:04:03;;;;;;;10.88;2.83;;;;;;;23.50;44.98;101757.94;5041068;28;20498;-85
2022/08/28 09:06:35;;;;;;;9.25;2.80;;;;;;;23.82;44.93;101757.03;5045315;28;20033;-86
2022/08/28 09:09:06;;;;;;;8.88;2.70;;;;;;;23.65;45.03;101764.72;5043688;28;20116;-85
2022/08/28 09:11:55;;;;;;;11.98;3.17;;;;;;;23.57;44.43;101757.09;5045077;28;20049;-86
2022/08/28 09:14:56;;;;;;;5.25;2.08;;;;;;;23.37;44.96;101752.78;5049717;28;20036;-85
2022/08/28 09:17:29;;;;;;;7.20;2.45;;;;;;;22.77;46.02;101766.47;5021329;28;20168;-86
2022/08/28 09:19:55;;;;;;;17.02;3.25;;;;;;;23.25;45.89;101762.47;5039814;28;20037;-86
2022/08/28 09:22:23;;;;;;;10.65;2.72;;;;;;;23.29;44.93;101764.47;5043911;28;20025;-85
2022/08/28 09:24:50;;;;;;;11.15;2.58;;;;;;;23.40;45.29;101762.94;5043137;28;20596;-84
2022/08/28 09:27:25;;;;;;;10.15;2.45;;;;;;;23.59;43.92;101770.91;5031253;28;20601;-85
2022/08/28 09:30:00;;;;;;;6.20;2.13;;;;;;;23.68;44.00;101762.47;5028102;28;20032;-85
2022/08/28 09:32:31;;;;;;;8.68;2.30;;;;;;;23.93;43.10;101771.38;5044850;28;20113;-87
2022/08/28 09:35:00;;;;;;;8.80;2.38;;;;;;;23.76;43.30;101766.66;5040952;28;20714;-84
2022/08/28 09:37:28;;;;;;;8.50;2.45;;;;;;;23.93;42.86;101771.38;5031792;28;20559;-84
2022/08/28 09:40:22;;;;;;;12.02;2.30;;;;;;;23.69;43.59;101765.91;5044504;28;20039;-87
2022/08/28 09:43:28;;;;;;;10.13;2.15;;;;;;;23.80;43.36;101769.69;5042461;28;20040;-86
2022/08/28 09:46:00;;;;;;;6.82;2.10;;;;;;;23.90;42.70;101769.97;5044153;28;20474;-86
2022/08/28 09:48:37;;;;;;;7.15;2.05;;;;;;;23.77;42.52;101770.09;5039072;28;20040;-86
2022/08/28 09:51:11;;;;;;;10.98;2.40;;;;;;;23.75;42.71;101772.97;5035978;28;20578;-86
2022/08/28 09:54:01;;;;;;;9.10;1.85;;;;;;;23.85;42.10;101765.34;5042415;28;20037;-87
2022/08/28 09:56:28;;;;;;;9.60;1.83;;;;;;;24.13;42.53;101776.44;5025882;28;20037;-85
2022/08/28 09:59:13;;;;;;;9.52;2.67;;;;;;;23.77;42.59;101767.44;5043443;28;20529;-86
2022/08/28 10:01:55;;;;;;;9.95;2.08;;;;;;;23.95;43.28;101772.78;5056349;28;20033;-86
2022/08/28 10:04:42;;;;;;;11.70;2.60;;;;;;;23.82;41.57;101768.44;5027879;28;20489;-86
2022/08/28 10:07:18;;;;;;;7.18;2.20;;;;;;;23.69;42.06;101771.19;5034810;28;20700;-85
2022/08/28 10:10:11;;;;;;;5.85;1.95;;;;;;;23.88;42.70;101764.09;5033058;28;20061;-84
2022/08/28 10:12:52;;;;;;;7.93;1.88;;;;;;;24.02;41.52;101773.50;5028402;28;20060;-86
2022/08/28 10:15:29;;;;;;;9.75;1.65;;;;;;;23.85;41.45;101762.72;5025433;28;20063;-85
2022/08/28 10:18:19;;;;;;;10.30;2.17;;;;;;;23.80;41.85;101769.69;5023334;28;20032;-87
2022/08/28 10:20:49;;;;;;;6.40;2.08;;;;;;;23.85;42.12;101762.72;5043707;28;20022;-85
2022/08/28 10:23:17;;;;;;;4.30;1.63;;;;;;;24.01;41.77;101763.94;5044740;28;20037;-85
2022/08/28 10:26:11;;;;;;;8.82;2.08;;;;;;;23.90;41.87;101762.03;5028976;28;20119;-85
2022/08/28 10:28:56;;;;;;;7.88;1.80;;;;;;;23.84;42.19;101754.97;5055918;28;20028;-86
2022/08/28 10:31:35;;;;;;;6.15;1.92;;;;;;;23.94;42.74;101743.84;5033226;28;20033;-86
2022/08/28 10:34:36;;;;;;;9.15;1.88;;;;;;;23.78;41.96;101751.34;5015490;28;20056;-86
2022/08/28 10:37:24;;;;;;;5.43;1.90;;;;;;;23.85;42.48;101757.41;5045214;28;20025;-83
2022/08/28 10:39:55;;;;;;;6.50;1.83;;;;;;;23.55;42.64;101756.50;5032715;28;20040;-86
2022/08/28 10:42:30;;;;;;;7.00;1.92;;;;;;;23.60;42.31;101760.09;5044640;28;20062;-87
2022/08/28 10:45:04;;;;;;;4.85;1.63;;;;;;;23.56;43.28;101764.19;5040486;28;20844;-84
2022/08/28 10:47:33;;;;;;;9.57;2.10;;;;;;;23.75;42.84;101762.38;5039281;28;20063;-85
2022/08/28 10:50:06;;;;;;;9.10;2.05;;;;;;;24.31;41.84;101762.34;5025140;28;20497;-86
2022/08/28 10:52:40;;;;;;;4.68;2.00;;;;;;;24.19;41.50;101763.09;5041642;28;20094;-83
2022/08/28 10:55:17;;;;;;;4.90;1.88;;;;;;;23.78;42.82;101769.09;5025711;28;20383;-85
2022/08/28 10:57:56;;;;;;;7.88;1.92;;;;;;;23.76;41.93;101757.91;5040096;28;20041;-87
2022/08/28 11:00:25;;;;;;;7.50;1.35;;;;;;;24.12;41.42;101758.94;5023433;28;20029;-86
2022/08/28 11:02:56;;;;;;;12.25;2.40;;;;;;;24.02;41.34;101757.63;5042128;28;20028;-86
2022/08/28 11:05:32;;;;;;;7.32;1.80;;;;;;;24.06;41.12;101755.34;5027037;28;20443;-86
2022/08/28 11:08:04;;;;;;;7.40;1.60;;;;;;;23.96;40.66;101747.91;5039679;28;20045;-86
2022/08/28 11:10:33;;;;;;;10.43;1.92;;;;;;;24.02;41.40;101760.28;5035466;28;20035;-86
2022/08/28 11:13:00;;;;;;;7.25;1.30;;;;;;;24.02;41.86;101759.47;5026620;28;20043;-87
2022/08/28 11:15:31;;;;;;;4.95;2.10;;;;;;;23.93;41.78;101758.94;5024081;28;20048;-86
2022/08/28 11:18:03;;;;;;;5.60;1.95;;;;;;;23.92;41.75;101751.22;5040356;28;20039;-84
2022/08/28 11:20:29;;;;;;;8.95;2.65;;;;;;;24.06;42.01;101747.38;5040987;28;20063;-86
2022/08/28 11:23:16;;;;;;;8.05;1.95;;;;;;;24.21;41.60;101763.69;5042500;28;20054;-86
2022/08/28 11:25:45;;;;;;;7.60;2.05;;;;;;;23.54;41.98;101760.97;5039939;28;20032;-86
2022/08/28 11:28:22;;;;;;;11.27;2.33;;;;;;;23.68;42.08;101754.50;5039119;28;20044;-86
2022/08/28 11:31:08;;;;;;;6.43;1.92;;;;;;;24.15;41.53;101751.34;5050997;28;20025;-84
2022/08/28 11:33:46;;;;;;;7.22;2.15;;;;;;;24.28;40.63;101756.47;5047067;28;20095;-83
2022/08/28 11:36:20;;;;;;;11.77;2.75;;;;;;;24.26;40.42;101763.84;5046725;28;20038;-85